createdAt,value
2018-03-31T00:00:10.402Z,4.84
2018-03-31T00:01:18.395Z,4.75
2018-03-31T00:02:26.451Z,4.79
2018-03-31T00:03:34.582Z,4.79
2018-03-31T00:04:42.607Z,4.83
2018-03-31T00:05:50.618Z,4.83
2018-03-31T00:06:58.762Z,4.75
2018-03-31T00:08:12.495Z,4.78
2018-03-31T00:09:14.796Z,4.78
2018-03-31T00:10:22.921Z,4.83
2018-03-31T00:11:31.004Z,4.84
2018-03-31T00:12:38.976Z,4.87
2018-03-31T00:13:47.136Z,4.83
2018-03-31T00:14:55.158Z,4.87
2018-03-31T00:16:03.173Z,4.82
2018-03-31T00:17:11.253Z,4.75
2018-03-31T00:18:19.278Z,4.82
2018-03-31T00:19:27.355Z,4.82
2018-03-31T00:20:35.456Z,4.70
2018-03-31T00:21:43.468Z,4.76
2018-03-31T00:22:51.562Z,4.82
2018-03-31T00:23:59.568Z,4.94
2018-03-31T00:25:08.490Z,4.75
2018-03-31T00:26:16.487Z,4.84
2018-03-31T00:27:24.555Z,4.82
2018-03-31T00:28:32.612Z,4.70
2018-03-31T00:29:40.659Z,4.82
2018-03-31T00:30:48.762Z,4.76
2018-03-31T00:31:56.787Z,4.75
2018-03-31T00:33:04.931Z,4.78
2018-03-31T00:34:13.098Z,4.74
2018-03-31T00:35:21.113Z,4.71
2018-03-31T00:36:29.046Z,4.71
2018-03-31T00:37:37.312Z,4.70
2018-03-31T00:38:45.202Z,4.79
2018-03-31T00:39:53.212Z,4.68
2018-03-31T00:41:01.314Z,4.79
2018-03-31T00:42:09.370Z,4.78
2018-03-31T00:43:17.439Z,4.74
2018-03-31T00:44:25.501Z,4.79
2018-03-31T00:45:33.506Z,4.78
2018-03-31T00:46:41.633Z,4.78
2018-03-31T00:47:49.631Z,4.68
2018-03-31T00:48:57.780Z,4.63
2018-03-31T00:50:05.811Z,4.64
2018-03-31T00:51:13.809Z,4.56
2018-03-31T00:52:21.925Z,4.52
2018-03-31T00:53:29.937Z,4.50
2018-03-31T00:54:38.031Z,4.52
2018-03-31T00:55:46.106Z,4.53
2018-03-31T00:56:54.141Z,4.48
2018-03-31T00:58:02.237Z,4.49
2018-03-31T00:59:10.261Z,4.39
2018-03-31T01:00:18.289Z,4.40
2018-03-31T01:01:26.391Z,4.39
2018-03-31T01:02:34.441Z,4.40
2018-03-31T01:03:42.495Z,4.43
2018-03-31T01:04:50.532Z,4.52
2018-03-31T01:05:58.709Z,4.42
2018-03-31T01:07:06.645Z,4.40
2018-03-31T01:08:14.739Z,4.39
2018-03-31T01:09:22.792Z,4.48
2018-03-31T01:10:30.836Z,4.45
2018-03-31T01:11:38.919Z,4.43
2018-03-31T01:12:46.939Z,4.49
2018-03-31T01:13:55.091Z,4.46
2018-03-31T01:15:03.070Z,4.32
2018-03-31T01:16:11.176Z,4.36
2018-03-31T01:17:19.185Z,4.32
2018-03-31T01:18:27.291Z,4.31
2018-03-31T01:19:35.319Z,4.25
2018-03-31T01:20:43.368Z,4.20
2018-03-31T01:21:51.421Z,4.06
2018-03-31T01:22:59.563Z,4.03
2018-03-31T01:24:07.543Z,4.02
2018-03-31T01:25:15.633Z,4.02
2018-03-31T01:26:23.696Z,4.02
2018-03-31T01:27:31.738Z,3.85
2018-03-31T01:28:39.782Z,3.82
2018-03-31T01:29:47.894Z,3.78
2018-03-31T01:30:55.943Z,3.84
2018-03-31T01:32:04.011Z,3.91
2018-03-31T01:33:12.026Z,3.91
2018-03-31T01:34:20.145Z,3.77
2018-03-31T01:35:28.211Z,3.73
2018-03-31T01:36:36.220Z,3.73
2018-03-31T01:37:44.257Z,3.70
2018-03-31T01:38:52.359Z,3.74
2018-03-31T01:40:00.497Z,3.85
2018-03-31T01:41:08.491Z,3.77
2018-03-31T01:42:16.487Z,3.82
2018-03-31T01:43:24.538Z,3.74
2018-03-31T01:44:34.178Z,3.71
2018-03-31T01:45:40.765Z,3.68
2018-03-31T01:46:48.794Z,3.71
2018-03-31T01:47:56.841Z,3.66
2018-03-31T01:49:04.888Z,3.70
2018-03-31T01:50:12.911Z,3.70
2018-03-31T01:51:21.218Z,3.70
2018-03-31T01:52:29.060Z,3.63
2018-03-31T01:53:37.118Z,3.52
2018-03-31T01:54:45.152Z,3.49
2018-03-31T01:55:53.248Z,3.52
2018-03-31T01:57:01.311Z,3.49
2018-03-31T01:58:09.321Z,3.53
2018-03-31T01:59:17.448Z,3.68
2018-03-31T02:00:25.448Z,3.50
2018-03-31T02:01:33.581Z,3.53
2018-03-31T02:02:41.590Z,3.55
2018-03-31T02:03:49.663Z,3.53
2018-03-31T02:04:57.685Z,3.50
2018-03-31T02:06:05.923Z,3.48
2018-03-31T02:07:13.798Z,3.53
2018-03-31T02:08:21.850Z,3.55
2018-03-31T02:09:32.486Z,3.63
2018-03-31T02:10:38.060Z,3.43
2018-03-31T02:11:46.043Z,3.53
2018-03-31T02:12:54.177Z,3.55
2018-03-31T02:14:02.188Z,3.63
2018-03-31T02:15:10.234Z,3.63
2018-03-31T02:16:18.340Z,3.63
2018-03-31T02:17:26.328Z,3.63
2018-03-31T02:18:34.445Z,3.49
2018-03-31T02:19:42.486Z,3.66
2018-03-31T02:20:50.584Z,3.61
2018-03-31T02:21:58.594Z,3.58
2018-03-31T02:23:06.631Z,3.56
2018-03-31T02:24:14.734Z,3.61
2018-03-31T02:25:22.746Z,3.63
2018-03-31T02:26:30.899Z,3.61
2018-03-31T02:27:38.911Z,3.56
2018-03-31T02:28:46.927Z,3.55
2018-03-31T02:29:55.049Z,3.53
2018-03-31T02:31:03.087Z,3.49
2018-03-31T02:32:11.130Z,3.56
2018-03-31T02:33:19.162Z,3.63
2018-03-31T02:34:27.264Z,3.58
2018-03-31T02:35:35.357Z,3.52
2018-03-31T02:36:43.380Z,3.43
2018-03-31T02:37:51.456Z,3.45
2018-03-31T02:38:59.460Z,3.48
2018-03-31T02:40:07.600Z,3.56
2018-03-31T02:41:15.640Z,3.55
2018-03-31T02:42:23.641Z,3.46
2018-03-31T02:43:31.698Z,3.45
2018-03-31T02:44:39.792Z,3.45
2018-03-31T02:45:47.807Z,3.45
2018-03-31T02:46:55.951Z,3.49
2018-03-31T02:48:03.925Z,3.43
2018-03-31T02:49:12.035Z,3.49
2018-03-31T02:50:20.057Z,3.37
2018-03-31T02:51:28.119Z,3.43
2018-03-31T02:52:36.264Z,3.45
2018-03-31T02:53:44.300Z,3.36
2018-03-31T02:54:52.307Z,3.45
2018-03-31T02:56:00.373Z,3.34
2018-03-31T02:57:08.453Z,3.41
2018-03-31T02:58:16.522Z,3.29
2018-03-31T02:59:24.529Z,3.29
2018-03-31T03:00:32.674Z,3.33
2018-03-31T03:01:40.727Z,3.24
2018-03-31T03:02:48.698Z,3.21
2018-03-31T03:03:56.982Z,3.26
2018-03-31T03:05:04.860Z,3.31
2018-03-31T03:06:12.944Z,3.26
2018-03-31T03:07:20.991Z,3.24
2018-03-31T03:08:29.011Z,3.19
2018-03-31T03:09:37.167Z,3.24
2018-03-31T03:10:45.134Z,3.30
2018-03-31T03:11:53.255Z,3.29
2018-03-31T03:13:01.280Z,3.22
2018-03-31T03:14:09.306Z,3.26
2018-03-31T03:15:17.421Z,3.27
2018-03-31T03:16:25.467Z,3.31
2018-03-31T03:17:33.476Z,3.30
2018-03-31T03:18:41.630Z,3.26
2018-03-31T03:19:52.087Z,3.21
2018-03-31T03:21:00.131Z,3.21
2018-03-31T03:22:08.173Z,3.13
2018-03-31T03:23:19.752Z,3.12
2018-03-31T03:24:24.374Z,3.06
2018-03-31T03:25:32.400Z,3.09
2018-03-31T03:26:40.467Z,3.21
2018-03-31T03:27:48.458Z,3.12
2018-03-31T03:28:56.662Z,3.15
2018-03-31T03:30:04.564Z,3.22
2018-03-31T03:31:12.637Z,3.13
2018-03-31T03:32:20.761Z,3.15
2018-03-31T03:33:28.824Z,3.12
2018-03-31T03:34:36.817Z,3.11
2018-03-31T03:35:44.926Z,3.08
2018-03-31T03:36:52.953Z,3.01
2018-03-31T03:38:01.005Z,3.12
2018-03-31T03:39:09.145Z,3.09
2018-03-31T03:40:17.146Z,3.13
2018-03-31T03:41:25.201Z,3.21
2018-03-31T03:42:33.299Z,3.09
2018-03-31T03:43:41.289Z,3.09
2018-03-31T03:44:49.383Z,3.01
2018-03-31T03:45:57.442Z,3.05
2018-03-31T03:47:05.469Z,2.88
2018-03-31T03:48:13.530Z,2.91
2018-03-31T03:49:21.576Z,2.87
2018-03-31T03:50:29.733Z,2.82
2018-03-31T03:51:37.694Z,2.82
2018-03-31T03:52:45.797Z,2.83
2018-03-31T03:53:53.856Z,2.82
2018-03-31T03:55:01.871Z,2.91
2018-03-31T03:56:09.992Z,2.80
2018-03-31T03:57:17.997Z,2.79
2018-03-31T03:58:26.065Z,2.83
2018-03-31T03:59:34.149Z,2.76
2018-03-31T04:00:42.231Z,2.82
2018-03-31T04:01:50.333Z,2.77
2018-03-31T04:02:58.301Z,2.82
2018-03-31T04:04:06.352Z,2.72
2018-03-31T04:05:14.495Z,2.73
2018-03-31T04:06:22.494Z,2.64
2018-03-31T04:07:30.588Z,2.62
2018-03-31T04:08:38.654Z,2.68
2018-03-31T04:09:46.688Z,2.69
2018-03-31T04:10:54.696Z,2.64
2018-03-31T04:12:02.833Z,2.69
2018-03-31T04:13:10.820Z,2.61
2018-03-31T04:14:18.914Z,2.69
2018-03-31T04:15:26.981Z,2.55
2018-03-31T04:16:35.078Z,2.52
2018-03-31T04:17:43.069Z,2.44
2018-03-31T04:18:51.105Z,2.44
2018-03-31T04:19:59.207Z,2.47
2018-03-31T04:21:07.282Z,2.46
2018-03-31T04:22:15.291Z,2.62
2018-03-31T04:23:23.443Z,2.52
2018-03-31T04:24:31.414Z,2.61
2018-03-31T04:25:39.523Z,2.55
2018-03-31T04:26:47.529Z,2.44
2018-03-31T04:27:55.615Z,2.59
2018-03-31T04:29:03.753Z,2.52
2018-03-31T04:30:11.788Z,2.58
2018-03-31T04:31:19.788Z,2.52
2018-03-31T04:32:27.845Z,2.47
2018-03-31T04:33:35.884Z,2.43
2018-03-31T04:34:43.995Z,2.47
2018-03-31T04:35:52.098Z,2.52
2018-03-31T04:37:00.061Z,2.43
2018-03-31T04:38:08.176Z,2.50
2018-03-31T04:39:16.727Z,2.43
2018-03-31T04:40:24.237Z,2.39
2018-03-31T04:41:32.371Z,2.41
2018-03-31T04:42:40.391Z,2.37
2018-03-31T04:43:48.412Z,2.46
2018-03-31T04:44:56.453Z,2.37
2018-03-31T04:46:04.544Z,2.46
2018-03-31T04:47:12.592Z,2.43
2018-03-31T04:48:20.723Z,2.37
2018-03-31T04:49:28.730Z,2.43
2018-03-31T04:50:36.759Z,2.44
2018-03-31T04:51:44.883Z,2.51
2018-03-31T04:52:52.947Z,2.44
2018-03-31T04:54:00.951Z,2.50
2018-03-31T04:55:09.013Z,2.41
2018-03-31T04:56:17.099Z,2.46
2018-03-31T04:57:25.179Z,2.50
2018-03-31T04:58:33.173Z,2.43
2018-03-31T04:59:41.260Z,2.41
2018-03-31T05:00:49.318Z,2.47
2018-03-31T05:01:57.339Z,2.43
2018-03-31T05:03:05.392Z,2.37
2018-03-31T05:04:13.462Z,2.37
2018-03-31T05:05:21.567Z,2.44
2018-03-31T05:06:29.573Z,2.47
2018-03-31T05:07:37.740Z,2.46
2018-03-31T05:08:45.690Z,2.41
2018-03-31T05:09:53.808Z,2.51
2018-03-31T05:11:01.802Z,2.54
2018-03-31T05:12:09.896Z,2.50
2018-03-31T05:13:17.981Z,2.58
2018-03-31T05:14:25.985Z,2.61
2018-03-31T05:15:34.034Z,2.47
2018-03-31T05:16:42.141Z,2.51
2018-03-31T05:17:50.180Z,2.64
2018-03-31T05:18:58.383Z,2.58
2018-03-31T05:20:06.352Z,2.61
2018-03-31T05:21:14.395Z,2.62
2018-03-31T05:22:22.415Z,2.69
2018-03-31T05:23:30.466Z,2.64
2018-03-31T05:24:38.621Z,2.61
2018-03-31T05:25:46.666Z,2.65
2018-03-31T05:26:54.667Z,2.61
2018-03-31T05:28:02.815Z,2.77
2018-03-31T05:29:10.747Z,2.77
2018-03-31T05:30:18.822Z,2.72
2018-03-31T05:31:27.012Z,2.75
2018-03-31T05:32:34.971Z,2.72
2018-03-31T05:33:42.996Z,2.68
2018-03-31T05:34:51.136Z,2.80
2018-03-31T05:35:59.134Z,2.70
2018-03-31T05:37:07.216Z,2.77
2018-03-31T05:38:15.302Z,2.80
2018-03-31T05:39:23.291Z,2.77
2018-03-31T05:40:31.356Z,2.85
2018-03-31T05:41:39.529Z,2.82
2018-03-31T05:42:47.501Z,2.82
2018-03-31T05:43:55.545Z,2.82
2018-03-31T05:45:03.668Z,2.83
2018-03-31T05:46:11.651Z,2.73
2018-03-31T05:47:19.701Z,2.79
2018-03-31T05:48:27.775Z,2.85
2018-03-31T05:49:35.834Z,2.85
2018-03-31T05:50:43.954Z,2.80
2018-03-31T05:51:52.032Z,2.97
2018-03-31T05:53:00.146Z,2.98
2018-03-31T05:54:08.117Z,2.98
2018-03-31T05:55:16.119Z,3.01
2018-03-31T05:56:24.173Z,3.00
2018-03-31T05:57:32.310Z,3.01
2018-03-31T05:58:40.298Z,3.08
2018-03-31T05:59:48.402Z,3.13
2018-03-31T06:00:56.469Z,3.13
2018-03-31T06:02:04.484Z,3.16
2018-03-31T06:03:12.531Z,3.18
2018-03-31T06:04:20.681Z,3.12
2018-03-31T06:05:28.657Z,3.16
2018-03-31T06:06:36.813Z,3.11
2018-03-31T06:07:44.802Z,3.22
2018-03-31T06:08:52.886Z,3.30
2018-03-31T06:10:00.980Z,3.41
2018-03-31T06:11:08.989Z,3.40
2018-03-31T06:12:17.025Z,3.50
2018-03-31T06:13:25.087Z,3.52
2018-03-31T06:14:33.201Z,3.58
2018-03-31T06:15:41.202Z,3.66
2018-03-31T06:16:49.301Z,3.77
2018-03-31T06:17:57.369Z,3.84
2018-03-31T06:19:05.430Z,3.86
2018-03-31T06:20:13.434Z,3.82
2018-03-31T06:21:21.515Z,3.82
2018-03-31T06:22:29.622Z,3.86
2018-03-31T06:23:37.619Z,3.88
2018-03-31T06:24:45.747Z,3.92
2018-03-31T06:25:53.780Z,3.89
2018-03-31T06:27:01.830Z,4.04
2018-03-31T06:28:09.857Z,4.07
2018-03-31T06:29:17.924Z,4.20
2018-03-31T06:30:26.361Z,4.18
2018-03-31T06:31:35.000Z,4.12
2018-03-31T06:32:42.478Z,4.10
2018-03-31T06:33:50.532Z,4.12
2018-03-31T06:34:58.663Z,4.13
2018-03-31T06:36:06.679Z,4.28
2018-03-31T06:37:14.717Z,4.36
2018-03-31T06:38:22.797Z,4.40
2018-03-31T06:39:30.865Z,4.46
2018-03-31T06:40:38.928Z,4.63
2018-03-31T06:41:46.951Z,4.66
2018-03-31T06:42:55.092Z,4.89
2018-03-31T06:44:03.107Z,4.86
2018-03-31T06:45:11.149Z,4.87
2018-03-31T06:46:19.314Z,4.83
2018-03-31T06:47:27.267Z,4.92
2018-03-31T06:48:35.350Z,5.10
2018-03-31T06:49:43.407Z,5.08
2018-03-31T06:50:51.500Z,5.07
2018-03-31T06:51:59.612Z,5.18
2018-03-31T06:53:07.593Z,5.20
2018-03-31T06:54:15.676Z,5.19
2018-03-31T06:55:23.714Z,5.37
2018-03-31T06:56:31.794Z,5.37
2018-03-31T06:57:39.818Z,5.31
2018-03-31T06:58:47.876Z,5.28
2018-03-31T06:59:56.015Z,5.23
2018-03-31T07:01:04.006Z,5.28
2018-03-31T07:02:12.131Z,5.28
2018-03-31T07:03:20.148Z,5.23
2018-03-31T07:04:30.766Z,5.28
2018-03-31T07:05:36.261Z,5.15
2018-03-31T07:06:44.381Z,5.26
2018-03-31T07:07:52.453Z,5.34
2018-03-31T07:09:00.521Z,5.29
2018-03-31T07:10:08.560Z,5.38
2018-03-31T07:11:16.583Z,5.51
2018-03-31T07:12:24.700Z,5.46
2018-03-31T07:13:32.688Z,5.54
2018-03-31T07:14:40.799Z,5.46
2018-03-31T07:15:48.857Z,5.55
2018-03-31T07:16:56.883Z,5.40
2018-03-31T07:18:04.963Z,5.38
2018-03-31T07:19:13.066Z,5.36
2018-03-31T07:20:21.058Z,5.37
2018-03-31T07:21:29.125Z,5.36
2018-03-31T07:22:37.242Z,5.38
2018-03-31T07:23:45.277Z,5.41
2018-03-31T07:24:53.319Z,5.40
2018-03-31T07:26:01.371Z,5.31
2018-03-31T07:27:09.548Z,5.37
2018-03-31T07:28:17.505Z,5.37
2018-03-31T07:29:25.553Z,5.36
2018-03-31T07:30:33.693Z,5.36
2018-03-31T07:31:41.777Z,5.51
2018-03-31T07:32:49.774Z,5.36
2018-03-31T07:33:57.793Z,5.34
2018-03-31T07:35:05.930Z,5.31
2018-03-31T07:36:13.933Z,5.40
2018-03-31T07:37:22.079Z,5.43
2018-03-31T07:38:30.053Z,5.36
2018-03-31T07:39:38.192Z,5.46
2018-03-31T07:40:46.915Z,5.51
2018-03-31T07:41:54.268Z,5.51
2018-03-31T07:43:02.308Z,5.61
2018-03-31T07:44:10.418Z,5.54
2018-03-31T07:45:19.026Z,5.54
2018-03-31T07:46:26.698Z,5.65
2018-03-31T07:47:35.035Z,5.69
2018-03-31T07:48:42.818Z,5.74
2018-03-31T07:49:51.141Z,5.73
2018-03-31T07:50:59.076Z,5.83
2018-03-31T07:52:06.817Z,5.77
2018-03-31T07:53:14.977Z,5.76
2018-03-31T07:54:23.613Z,5.84
2018-03-31T07:55:31.184Z,5.84
2018-03-31T07:56:39.040Z,5.73
2018-03-31T07:57:47.130Z,5.79
2018-03-31T07:58:55.315Z,5.76
2018-03-31T08:00:03.282Z,5.81
2018-03-31T08:01:11.370Z,5.84
2018-03-31T08:02:19.402Z,5.79
2018-03-31T08:03:27.404Z,5.92
2018-03-31T08:04:35.637Z,5.94
2018-03-31T08:05:43.938Z,5.99
2018-03-31T08:06:51.754Z,6.10
2018-03-31T08:08:00.302Z,6.06
2018-03-31T08:09:07.832Z,6.07
2018-03-31T08:10:16.131Z,6.07
2018-03-31T08:11:23.915Z,6.10
2018-03-31T08:12:35.554Z,5.94
2018-03-31T08:13:39.987Z,6.09
2018-03-31T08:14:48.080Z,6.07
2018-03-31T08:15:58.193Z,6.12
2018-03-31T08:17:04.234Z,6.09
2018-03-31T08:18:12.223Z,6.13
2018-03-31T08:19:20.430Z,6.19
2018-03-31T08:20:28.378Z,6.26
2018-03-31T08:21:36.404Z,6.19
2018-03-31T08:22:44.491Z,6.32
2018-03-31T08:23:52.600Z,6.35
2018-03-31T08:25:00.606Z,6.26
2018-03-31T08:26:08.718Z,6.22
2018-03-31T08:27:16.708Z,6.20
2018-03-31T08:28:24.838Z,6.22
2018-03-31T08:29:32.854Z,6.26
2018-03-31T08:30:42.412Z,6.29
2018-03-31T08:31:48.971Z,6.25
2018-03-31T08:32:58.543Z,6.22
2018-03-31T08:34:05.116Z,6.36
2018-03-31T08:35:13.164Z,6.39
2018-03-31T08:36:21.270Z,6.35
2018-03-31T08:37:29.430Z,6.34
2018-03-31T08:38:37.418Z,6.41
2018-03-31T08:39:45.393Z,6.50
2018-03-31T08:40:53.530Z,6.47
2018-03-31T08:42:01.530Z,6.44
2018-03-31T08:43:10.209Z,6.47
2018-03-31T08:44:17.940Z,6.44
2018-03-31T08:45:25.718Z,6.67
2018-03-31T08:46:34.469Z,6.47
2018-03-31T08:47:43.305Z,6.53
2018-03-31T08:48:49.924Z,6.60
2018-03-31T08:49:58.261Z,6.60
2018-03-31T08:51:06.135Z,6.67
2018-03-31T08:52:14.403Z,6.78
2018-03-31T08:53:22.421Z,6.87
2018-03-31T08:54:30.227Z,6.83
2018-03-31T08:55:38.352Z,6.83
2018-03-31T08:56:47.023Z,6.77
2018-03-31T08:57:54.505Z,6.72
2018-03-31T08:59:02.539Z,6.72
2018-03-31T09:00:10.830Z,6.72
2018-03-31T09:01:18.920Z,6.78
2018-03-31T09:02:26.915Z,6.74
2018-03-31T09:03:35.087Z,6.74
2018-03-31T09:04:43.085Z,6.70
2018-03-31T09:05:51.126Z,6.68
2018-03-31T09:06:59.263Z,6.80
2018-03-31T09:08:07.873Z,6.75
2018-03-31T09:09:16.041Z,6.74
2018-03-31T09:10:23.526Z,6.60
2018-03-31T09:11:31.510Z,6.75
2018-03-31T09:12:39.514Z,6.64
2018-03-31T09:13:47.632Z,6.68
2018-03-31T09:14:55.622Z,6.64
2018-03-31T09:16:03.710Z,6.64
2018-03-31T09:17:12.166Z,6.47
2018-03-31T09:18:19.809Z,6.39
2018-03-31T09:19:27.918Z,6.41
2018-03-31T09:20:35.954Z,6.31
2018-03-31T09:21:44.001Z,6.20
2018-03-31T09:22:52.095Z,6.34
2018-03-31T09:24:00.124Z,6.31
2018-03-31T09:25:09.665Z,6.36
2018-03-31T09:26:16.311Z,6.35
2018-03-31T09:27:24.341Z,6.49
2018-03-31T09:28:32.476Z,6.71
2018-03-31T09:29:40.461Z,6.77
2018-03-31T09:30:48.533Z,6.85
2018-03-31T09:31:56.610Z,6.93
2018-03-31T09:33:04.610Z,7.14
2018-03-31T09:34:12.683Z,7.25
2018-03-31T09:35:20.805Z,7.33
2018-03-31T09:36:28.813Z,7.40
2018-03-31T09:37:36.907Z,7.50
2018-03-31T09:38:44.925Z,7.53
2018-03-31T09:39:52.991Z,7.59
2018-03-31T09:41:01.170Z,7.55
2018-03-31T09:42:09.178Z,7.40
2018-03-31T09:43:17.273Z,7.39
2018-03-31T09:44:25.298Z,7.50
2018-03-31T09:45:33.394Z,7.62
2018-03-31T09:46:41.431Z,7.67
2018-03-31T09:47:49.543Z,7.46
2018-03-31T09:48:57.515Z,7.44
2018-03-31T09:50:05.592Z,7.25
2018-03-31T09:51:13.615Z,7.21
2018-03-31T09:52:21.789Z,7.43
2018-03-31T09:53:29.787Z,7.37
2018-03-31T09:55:45.898Z,7.64
2018-03-31T09:56:53.948Z,7.66
2018-03-31T09:58:02.051Z,7.81
2018-03-31T09:59:10.774Z,7.91
2018-03-31T10:00:18.610Z,7.84
2018-03-31T10:01:26.746Z,7.87
2018-03-31T10:02:34.845Z,8.02
2018-03-31T10:03:42.666Z,8.20
2018-03-31T10:05:01.686Z,8.45
2018-03-31T10:05:58.933Z,8.54
2018-03-31T10:07:09.006Z,8.68
2018-03-31T10:08:34.447Z,8.81
2018-03-31T10:09:27.184Z,9.02
2018-03-31T10:10:32.658Z,9.11
2018-03-31T10:11:39.436Z,9.19
2018-03-31T10:12:47.362Z,9.36
2018-03-31T10:13:55.412Z,9.34
2018-03-31T10:15:03.499Z,9.30
2018-03-31T10:16:11.529Z,9.31
2018-03-31T10:17:19.554Z,9.31
2018-03-31T10:18:27.662Z,9.48
2018-03-31T10:19:35.683Z,9.55
2018-03-31T10:20:43.872Z,9.73
2018-03-31T10:21:51.850Z,9.88
2018-03-31T10:22:59.951Z,10.00
2018-03-31T10:24:08.013Z,9.99
2018-03-31T10:25:16.052Z,10.12
2018-03-31T10:26:24.207Z,9.87
2018-03-31T10:27:32.227Z,9.74
2018-03-31T10:28:40.282Z,9.69
2018-03-31T10:29:48.330Z,9.64
2018-03-31T10:30:56.363Z,9.56
2018-03-31T10:32:04.501Z,9.49
2018-03-31T10:33:12.476Z,9.81
2018-03-31T10:34:20.599Z,9.72
2018-03-31T10:35:28.660Z,9.85
2018-03-31T10:36:36.767Z,9.85
2018-03-31T10:37:44.778Z,9.64
2018-03-31T10:38:52.848Z,9.69
2018-03-31T10:40:00.948Z,9.56
2018-03-31T10:41:10.511Z,9.40
2018-03-31T10:42:17.103Z,9.29
2018-03-31T10:43:25.112Z,8.93
2018-03-31T10:44:33.148Z,8.78
2018-03-31T10:45:41.245Z,8.74
2018-03-31T10:46:49.275Z,8.82
2018-03-31T10:47:57.380Z,8.93
2018-03-31T10:49:05.416Z,8.96
2018-03-31T10:50:13.490Z,8.86
2018-03-31T10:51:21.571Z,8.87
2018-03-31T10:52:29.603Z,8.86
2018-03-31T10:53:37.660Z,8.90
2018-03-31T10:54:45.775Z,8.89
2018-03-31T10:55:53.798Z,8.71
2018-03-31T10:57:01.929Z,8.66
2018-03-31T10:58:09.914Z,8.53
2018-03-31T10:59:18.084Z,8.59
2018-03-31T11:00:26.040Z,8.41
2018-03-31T11:01:34.152Z,8.42
2018-03-31T11:04:22.572Z,8.41
2018-03-31T11:07:20.956Z,8.03
2018-03-31T11:08:28.955Z,8.09
2018-03-31T11:09:37.080Z,7.99
2018-03-31T11:10:45.114Z,8.06
2018-03-31T11:11:53.221Z,7.95
2018-03-31T11:13:01.240Z,7.91
2018-03-31T11:14:09.311Z,7.81
2018-03-31T11:15:17.380Z,7.72
2018-03-31T11:16:25.476Z,7.62
2018-03-31T11:17:33.573Z,7.46
2018-03-31T11:22:05.811Z,7.39
2018-03-31T11:23:13.838Z,7.36
2018-03-31T11:24:21.942Z,7.28
2018-03-31T11:25:29.922Z,7.41
2018-03-31T11:26:38.046Z,7.55
2018-03-31T11:27:46.098Z,7.53
2018-03-31T11:28:54.134Z,7.72
2018-03-31T11:30:02.234Z,7.88
2018-03-31T11:31:10.251Z,8.09
2018-03-31T11:32:18.422Z,8.32
2018-03-31T11:33:26.519Z,8.44
2018-03-31T11:34:34.432Z,8.72
2018-03-31T11:35:42.514Z,8.92
2018-03-31T11:36:50.551Z,9.02
2018-03-31T11:37:59.213Z,8.86
2018-03-31T11:39:06.821Z,9.00
2018-03-31T11:40:14.765Z,8.89
2018-03-31T11:41:22.825Z,8.82
2018-03-31T11:42:30.937Z,9.05
2018-03-31T11:43:38.949Z,9.16
2018-03-31T11:44:47.029Z,9.24
2018-03-31T11:45:55.122Z,9.34
2018-03-31T11:47:03.150Z,9.42
2018-03-31T11:48:11.211Z,9.55
2018-03-31T11:49:19.261Z,9.54
2018-03-31T11:50:27.371Z,9.55
2018-03-31T11:51:35.393Z,9.54
2018-03-31T11:52:43.457Z,9.52
2018-03-31T11:53:51.522Z,9.55
2018-03-31T11:54:59.651Z,9.66
2018-03-31T11:56:07.743Z,9.70
2018-03-31T11:57:15.713Z,9.56
2018-03-31T11:58:23.784Z,9.54
2018-03-31T11:59:31.856Z,9.64
2018-03-31T12:00:39.919Z,9.88
2018-03-31T12:01:47.972Z,9.99
2018-03-31T12:02:56.095Z,10.13
2018-03-31T12:04:04.162Z,10.27
2018-03-31T12:05:12.218Z,10.45
2018-03-31T12:06:20.249Z,10.69
2018-03-31T12:07:28.378Z,10.49
2018-03-31T12:08:36.388Z,10.67
2018-03-31T12:09:44.517Z,10.72
2018-03-31T12:10:52.539Z,10.94
2018-03-31T12:12:01.221Z,11.00
2018-03-31T12:13:08.688Z,11.02
2018-03-31T12:14:16.752Z,11.00
2018-03-31T12:15:24.770Z,11.05
2018-03-31T12:16:33.461Z,11.12
2018-03-31T12:17:40.902Z,10.92
2018-03-31T12:18:48.973Z,11.01
2018-03-31T12:19:57.051Z,10.75
2018-03-31T12:21:05.135Z,10.64
2018-03-31T12:22:13.169Z,10.71
2018-03-31T12:23:21.274Z,10.59
2018-03-31T12:24:29.297Z,10.53
2018-03-31T12:25:37.360Z,10.59
2018-03-31T12:26:45.473Z,10.62
2018-03-31T12:27:53.565Z,10.58
2018-03-31T12:29:01.601Z,10.67
2018-03-31T12:30:09.669Z,10.62
2018-03-31T12:31:17.802Z,10.71
2018-03-31T12:32:25.753Z,10.77
2018-03-31T12:33:33.842Z,10.72
2018-03-31T12:34:41.936Z,10.83
2018-03-31T12:35:50.014Z,10.76
2018-03-31T12:36:58.123Z,10.61
2018-03-31T12:38:06.132Z,10.83
2018-03-31T12:39:14.701Z,10.77
2018-03-31T12:40:22.276Z,10.89
2018-03-31T12:41:30.336Z,10.79
2018-03-31T12:42:38.438Z,10.77
2018-03-31T12:43:46.521Z,10.82
2018-03-31T12:44:54.546Z,11.01
2018-03-31T12:46:02.679Z,10.95
2018-03-31T12:47:10.754Z,11.13
2018-03-31T12:48:18.689Z,10.97
2018-03-31T12:49:27.349Z,10.97
2018-03-31T12:50:34.835Z,10.89
2018-03-31T12:51:43.334Z,10.77
2018-03-31T12:52:51.050Z,10.83
2018-03-31T12:53:59.066Z,10.95
2018-03-31T12:55:07.204Z,10.84
2018-03-31T12:56:15.234Z,10.94
2018-03-31T12:57:23.332Z,10.84
2018-03-31T12:58:31.368Z,10.90
2018-03-31T12:59:39.965Z,10.76
2018-03-31T13:00:47.489Z,10.69
2018-03-31T13:01:55.486Z,10.71
2018-03-31T13:03:03.554Z,10.68
2018-03-31T13:04:11.785Z,10.57
2018-03-31T13:05:19.733Z,10.34
2018-03-31T13:06:27.761Z,10.39
2018-03-31T13:07:35.807Z,10.55
2018-03-31T13:08:43.937Z,10.53
2018-03-31T13:09:52.019Z,10.49
2018-03-31T13:11:00.054Z,10.65
2018-03-31T13:12:08.102Z,10.72
2018-03-31T13:13:16.166Z,10.84
2018-03-31T13:14:24.799Z,10.98
2018-03-31T13:15:32.353Z,11.05
2018-03-31T13:16:40.377Z,11.15
2018-03-31T13:17:48.494Z,11.12
2018-03-31T13:18:56.552Z,11.13
2018-03-31T13:20:04.601Z,11.12
2018-03-31T13:21:12.681Z,10.98
2018-03-31T13:22:20.705Z,10.82
2018-03-31T13:23:28.825Z,10.57
2018-03-31T13:24:36.862Z,10.58
2018-03-31T13:25:44.874Z,10.55
2018-03-31T13:26:52.939Z,10.42
2018-03-31T13:28:01.093Z,10.27
2018-03-31T13:29:09.121Z,10.12
2018-03-31T13:30:17.169Z,10.02
2018-03-31T13:31:25.255Z,9.99
2018-03-31T13:32:33.339Z,9.97
2018-03-31T13:33:41.390Z,9.91
2018-03-31T13:34:49.614Z,9.87
2018-03-31T13:35:57.507Z,10.17
2018-03-31T13:37:05.578Z,10.42
2018-03-31T13:38:13.660Z,10.72
2018-03-31T13:39:21.735Z,10.97
2018-03-31T13:40:29.799Z,11.37
2018-03-31T13:41:37.810Z,11.55
2018-03-31T13:42:45.920Z,11.71
2018-03-31T13:43:53.922Z,12.00
2018-03-31T13:45:01.989Z,11.93
2018-03-31T13:46:10.103Z,12.03
2018-03-31T13:47:18.169Z,11.91
2018-03-31T13:48:26.206Z,11.88
2018-03-31T13:49:34.307Z,11.83
2018-03-31T13:50:42.404Z,11.88
2018-03-31T13:51:50.439Z,11.77
2018-03-31T13:52:58.502Z,11.81
2018-03-31T13:54:06.625Z,11.95
2018-03-31T13:55:14.711Z,11.95
2018-03-31T13:56:22.724Z,12.14
2018-03-31T13:57:30.787Z,12.17
2018-03-31T13:58:38.798Z,12.21
2018-03-31T13:59:46.869Z,12.23
2018-03-31T14:00:54.978Z,12.18
2018-03-31T14:02:02.982Z,12.15
2018-03-31T14:03:11.142Z,12.10
2018-03-31T14:04:19.121Z,12.03
2018-03-31T14:05:27.201Z,11.91
2018-03-31T14:06:35.293Z,11.83
2018-03-31T14:07:43.361Z,11.88
2018-03-31T14:08:51.441Z,11.83
2018-03-31T14:09:59.566Z,11.74
2018-03-31T14:11:07.689Z,11.62
2018-03-31T14:12:15.667Z,11.60
2018-03-31T14:13:23.683Z,11.38
2018-03-31T14:14:31.771Z,11.38
2018-03-31T14:15:39.818Z,11.30
2018-03-31T14:16:47.862Z,11.25
2018-03-31T14:17:55.991Z,11.26
2018-03-31T14:19:04.035Z,11.19
2018-03-31T14:20:12.072Z,11.08
2018-03-31T14:21:20.170Z,11.08
2018-03-31T14:22:28.242Z,11.07
2018-03-31T14:23:36.319Z,11.02
2018-03-31T14:24:44.377Z,10.89
2018-03-31T14:25:52.411Z,10.95
2018-03-31T14:27:00.511Z,10.94
2018-03-31T14:28:08.565Z,10.89
2018-03-31T14:29:16.607Z,10.94
2018-03-31T14:30:24.706Z,11.01
2018-03-31T14:31:32.759Z,11.05
2018-03-31T14:32:40.772Z,11.10
2018-03-31T14:33:48.887Z,11.31
2018-03-31T14:34:56.992Z,11.43
2018-03-31T14:36:05.010Z,11.52
2018-03-31T14:37:13.052Z,11.59
2018-03-31T14:38:21.162Z,11.77
2018-03-31T14:39:29.257Z,11.88
2018-03-31T14:40:37.260Z,11.93
2018-03-31T14:41:45.334Z,12.11
2018-03-31T14:42:53.394Z,12.05
2018-03-31T14:44:01.547Z,12.21
2018-03-31T14:45:09.525Z,12.18
2018-03-31T14:46:17.612Z,12.25
2018-03-31T14:47:25.647Z,12.05
2018-03-31T14:48:33.711Z,12.14
2018-03-31T14:49:41.783Z,12.03
2018-03-31T14:50:49.874Z,11.93
2018-03-31T14:51:57.903Z,11.88
2018-03-31T14:53:06.008Z,11.77
2018-03-31T14:54:14.102Z,11.77
2018-03-31T14:55:22.154Z,11.59
2018-03-31T14:56:30.161Z,11.53
2018-03-31T14:57:38.288Z,11.41
2018-03-31T14:58:46.369Z,11.48
2018-03-31T14:59:54.404Z,11.35
2018-03-31T15:01:02.451Z,11.25
2018-03-31T15:02:10.485Z,10.94
2018-03-31T15:03:18.554Z,10.94
2018-03-31T15:04:26.634Z,10.83
2018-03-31T15:05:34.733Z,10.83
2018-03-31T15:06:42.751Z,10.83
2018-03-31T15:07:50.814Z,10.86